Time;durP1;ratioP1;P1;durP2;ratioP2;P2;SDS_P1;SDS_P2;PMS_P1;PMS_P2;Temp;Humidity;BMP_temperature;BMP_pressure;BME280_temperature;BME280_humidity;BME280_pressure;Samples;Min_cycle;Max_cycle;Signal;HPM_P1;HPM_P2
2021/09/26 00:00:19;;;;;;;;;;;20.70;71.80;;;;;;5035286;28;1273;-70
2021/09/26 00:02:44;;;;;;;;;;;20.70;71.80;;;;;;5035442;28;1277;-70
2021/09/26 00:05:10;;;;;;;;;;;20.70;71.80;;;;;;5035277;28;1092;-69
2021/09/26 00:07:36;;;;;;;;;;;20.70;71.80;;;;;;5017170;28;1343;-70
2021/09/26 00:10:01;;;;;;;;;;;20.70;71.90;;;;;;5035009;28;1375;-70
2021/09/26 00:12:27;;;;;;;;;;;20.80;71.90;;;;;;5034891;28;1057;-69
2021/09/26 00:14:53;;;;;;;;;;;20.70;71.90;;;;;;5035077;28;1322;-70
2021/09/26 00:17:18;;;;;;;;;;;20.70;71.90;;;;;;5034958;28;1369;-70
2021/09/26 00:19:44;;;;;;;;;;;20.70;71.90;;;;;;5034810;28;1076;-70
2021/09/26 00:22:09;;;;;;;;;;;20.70;71.80;;;;;;5016679;28;1312;-71
2021/09/26 00:24:35;;;;;;;;;;;20.70;71.90;;;;;;5035004;28;1084;-70
2021/09/26 00:27:00;;;;;;;;;;;20.70;71.90;;;;;;5034743;28;1265;-67
2021/09/26 00:29:26;;;;;;;;;;;20.70;71.90;;;;;;5034589;28;1927;-68
2021/09/26 00:31:51;;;;;;;;;;;20.70;71.90;;;;;;5034381;28;1351;-68
2021/09/26 00:34:17;;;;;;;;;;;20.70;71.90;;;;;;5034658;28;1906;-67
2021/09/26 00:36:42;;;;;;;;;;;20.70;71.90;;;;;;5034289;28;1292;-69
2021/09/26 00:39:08;;;;;;;;;;;20.70;71.80;;;;;;5034715;28;1504;-67
2021/09/26 00:41:33;;;;;;;;;;;20.70;71.80;;;;;;5016506;28;1282;-67
2021/09/26 00:43:58;;;;;;;;;;;20.70;71.90;;;;;;5034364;28;1398;-68
2021/09/26 00:46:24;;;;;;;;;;;20.70;71.90;;;;;;5016745;28;1400;-68
2021/09/26 00:48:49;;;;;;;;;;;20.70;72.00;;;;;;5016629;28;1360;-67
2021/09/26 00:51:16;;;;;;;;;;;20.70;71.90;;;;;;5033870;28;1348;-67
2021/09/26 00:53:41;;;;;;;;;;;20.70;71.90;;;;;;5016446;28;1968;-68
2021/09/26 00:56:07;;;;;;;;;;;20.70;71.90;;;;;;5034509;28;1327;-68
2021/09/26 00:58:32;;;;;;;;;;;20.70;72.00;;;;;;5034150;28;1303;-70
2021/09/26 01:00:58;;;;;;;;;;;20.70;72.00;;;;;;5016332;28;1096;-69
2021/09/26 01:03:23;;;;;;;;;;;20.70;72.00;;;;;;5034092;28;1073;-70
2021/09/26 01:05:50;;;;;;;;;;;20.70;72.00;;;;;;5034033;28;1294;-68
2021/09/26 01:08:19;;;;;;;;;;;20.70;72.00;;;;;;5016373;28;1281;-69
2021/09/26 01:10:51;;;;;;;;;;;20.70;72.00;;;;;;5016081;28;1313;-68
2021/09/26 01:13:19;;;;;;;;;;;20.70;72.00;;;;;;5033938;28;1961;-69
2021/09/26 01:15:56;;;;;;;;;;;20.70;72.00;;;;;;5016221;28;1303;-68
2021/09/26 01:18:27;;;;;;;;;;;20.70;72.00;;;;;;5015977;28;1690;-68
2021/09/26 01:20:57;;;;;;;;;;;20.70;72.00;;;;;;5033435;28;1521;-68
2021/09/26 01:23:28;;;;;;;;;;;20.70;72.00;;;;;;5015905;28;1634;-68
2021/09/26 01:25:57;;;;;;;;;;;20.70;72.00;;;;;;5033265;28;1358;-68
2021/09/26 01:28:38;;;;;;;;;;;20.70;72.00;;;;;;5015669;28;1719;-68
2021/09/26 01:31:03;;;;;;;;;;;20.70;72.00;;;;;;5032670;28;1681;-69
2021/09/26 01:33:28;;;;;;;;;;;20.70;72.00;;;;;;5033514;28;1914;-69
2021/09/26 01:36:01;;;;;;;;;;;20.70;72.00;;;;;;5033454;28;1471;-69
2021/09/26 01:38:27;;;;;;;;;;;20.70;72.10;;;;;;5016124;28;1518;-69
2021/09/26 01:40:55;;;;;;;;;;;20.70;72.00;;;;;;5015501;28;1730;-69
2021/09/26 01:43:23;;;;;;;;;;;20.80;72.10;;;;;;5033022;28;1391;-69
2021/09/26 01:45:53;;;;;;;;;;;20.80;72.00;;;;;;5015704;28;1592;-70
2021/09/26 01:48:22;;;;;;;;;;;20.80;71.90;;;;;;5015491;28;1663;-68
2021/09/26 01:50:49;;;;;;;;;;;20.80;71.80;;;;;;5014159;28;1434;-68
2021/09/26 01:53:14;;;;;;;;;;;20.80;71.80;;;;;;5015298;28;1910;-69
2021/09/26 01:55:39;;;;;;;;;;;20.80;71.70;;;;;;5033174;28;1272;-69
2021/09/26 01:58:05;;;;;;;;;;;20.80;71.60;;;;;;5015575;28;1394;-68
2021/09/26 02:00:30;;;;;;;;;;;20.90;71.60;;;;;;5032849;28;1368;-70
2021/09/26 02:02:56;;;;;;;;;;;20.90;71.60;;;;;;5012234;28;1446;-70
2021/09/26 02:05:21;;;;;;;;;;;20.90;71.50;;;;;;5015657;28;1621;-71
2021/09/26 02:07:48;;;;;;;;;;;20.90;71.40;;;;;;5015427;28;1354;-70
2021/09/26 02:10:14;;;;;;;;;;;20.90;71.40;;;;;;5014460;28;1711;-70
2021/09/26 02:12:39;;;;;;;;;;;20.90;71.30;;;;;;5014873;28;1898;-70
2021/09/26 02:15:05;;;;;;;;;;;21.00;71.40;;;;;;5015360;28;1446;-71
2021/09/26 02:17:31;;;;;;;;;;;20.90;71.20;;;;;;5015247;28;1673;-70
2021/09/26 02:20:00;;;;;;;;;;;21.00;71.20;;;;;;5015183;28;1467;-70
2021/09/26 02:22:26;;;;;;;;;;;21.00;71.20;;;;;;5014678;28;1299;-70
2021/09/26 02:24:51;;;;;;;;;;;21.00;71.90;;;;;;5032629;28;966;-71
2021/09/26 02:27:17;;;;;;;;;;;21.00;71.10;;;;;;5032521;28;1322;-70
2021/09/26 02:29:42;;;;;;;;;;;21.00;71.10;;;;;;5032861;28;1467;-71
2021/09/26 02:32:07;;;;;;;;;;;21.00;71.00;;;;;;5014833;28;1262;-70
2021/09/26 02:34:33;;;;;;;;;;;21.00;71.00;;;;;;5032646;28;1915;-70
2021/09/26 02:36:58;;;;;;;;;;;21.00;70.90;;;;;;5032800;28;1380;-70
2021/09/26 02:39:24;;;;;;;;;;;21.00;70.90;;;;;;5032590;28;1213;-70
2021/09/26 02:41:59;;;;;;;;;;;21.10;70.90;;;;;;5032766;28;1316;-71
2021/09/26 02:44:34;;;;;;;;;;;21.10;70.90;;;;;;5017917;28;1113;-71
2021/09/26 02:47:01;;;;;;;;;;;21.10;70.90;;;;;;5018965;28;1170;-71
2021/09/26 02:49:26;;;;;;;;;;;21.10;70.90;;;;;;5018796;28;1371;-70
2021/09/26 02:51:52;;;;;;;;;;;21.10;70.90;;;;;;5018471;28;1346;-71
2021/09/26 02:54:17;;;;;;;;;;;21.10;70.90;;;;;;5018778;28;1907;-71
2021/09/26 02:56:42;;;;;;;;;;;21.10;70.90;;;;;;5018792;28;1116;-71
2021/09/26 02:59:08;;;;;;;;;;;21.10;70.90;;;;;;5018689;28;1279;-71
2021/09/26 03:01:33;;;;;;;;;;;21.10;70.90;;;;;;5018556;28;1058;-71
2021/09/26 03:04:05;;;;;;;;;;;21.10;70.90;;;;;;5036477;28;1096;-70
2021/09/26 03:06:30;;;;;;;;;;;21.10;71.00;;;;;;5036388;28;1170;-71
2021/09/26 03:08:56;;;;;;;;;;;21.10;70.90;;;;;;5018632;28;1220;-71
2021/09/26 03:11:21;;;;;;;;;;;21.10;71.00;;;;;;5018423;28;1148;-70
2021/09/26 03:13:47;;;;;;;;;;;21.10;70.90;;;;;;5012301;28;1902;-70
2021/09/26 03:16:12;;;;;;;;;;;21.10;71.00;;;;;;5011433;28;1062;-71
2021/09/26 03:18:38;;;;;;;;;;;21.10;71.00;;;;;;5036122;28;1365;-70
2021/09/26 03:21:03;;;;;;;;;;;21.00;71.00;;;;;;5033476;28;1164;-71
2021/09/26 03:23:29;;;;;;;;;;;21.00;71.00;;;;;;5035726;28;1121;-71
2021/09/26 03:25:54;;;;;;;;;;;21.00;71.00;;;;;;5018321;28;1117;-70
2021/09/26 03:28:19;;;;;;;;;;;21.00;71.00;;;;;;5036483;28;1267;-73
2021/09/26 03:30:45;;;;;;;;;;;21.00;71.00;;;;;;5035615;28;1268;-72
2021/09/26 03:33:10;;;;;;;;;;;21.00;71.00;;;;;;5035778;28;1906;-72
2021/09/26 03:35:37;;;;;;;;;;;21.10;71.10;;;;;;5035868;28;844;-72
2021/09/26 03:38:03;;;;;;;;;;;21.00;71.10;;;;;;5035336;28;1279;-72
2021/09/26 03:40:29;;;;;;;;;;;21.00;71.10;;;;;;5017906;28;1444;-72
2021/09/26 03:42:54;;;;;;;;;;;21.00;71.10;;;;;;5035509;28;1308;-72
2021/09/26 03:45:19;;;;;;;;;;;21.00;71.10;;;;;;5035644;28;1329;-73
2021/09/26 03:47:45;;;;;;;;;;;21.00;71.10;;;;;;5035475;28;1774;-73
2021/09/26 03:50:10;;;;;;;;;;;21.00;71.10;;;;;;5035381;28;1065;-72
2021/09/26 03:52:36;;;;;;;;;;;21.00;71.20;;;;;;5017486;28;1898;-72
2021/09/26 03:55:05;;;;;;;;;;;21.00;71.20;;;;;;5035079;28;1065;-73
2021/09/26 03:57:30;;;;;;;;;;;21.00;71.20;;;;;;5035672;28;1286;-72
2021/09/26 03:59:56;;;;;;;;;;;21.00;71.20;;;;;;4997734;28;1144;-72
2021/09/26 04:02:21;;;;;;;;;;;21.00;71.20;;;;;;5000082;28;1137;-73
2021/09/26 04:04:47;;;;;;;;;;;21.00;71.20;;;;;;5035447;28;1120;-72
2021/09/26 04:07:12;;;;;;;;;;;21.00;71.20;;;;;;5034838;28;1125;-72
2021/09/26 04:09:37;;;;;;;;;;;21.00;71.20;;;;;;5035119;28;1211;-73
2021/09/26 04:12:03;;;;;;;;;;;21.00;71.30;;;;;;5035068;28;1351;-73
2021/09/26 04:14:28;;;;;;;;;;;21.00;71.20;;;;;;5034984;28;1898;-72
2021/09/26 04:16:54;;;;;;;;;;;21.00;71.20;;;;;;5035004;28;1380;-72
2021/09/26 04:19:19;;;;;;;;;;;21.00;71.20;;;;;;5035008;28;1355;-72
2021/09/26 04:21:45;;;;;;;;;;;21.00;71.20;;;;;;5034251;28;1308;-72
2021/09/26 04:24:11;;;;;;;;;;;21.00;71.20;;;;;;5017591;28;1343;-72
2021/09/26 04:26:36;;;;;;;;;;;21.00;71.10;;;;;;5017065;28;1328;-72
2021/09/26 04:29:02;;;;;;;;;;;21.00;71.10;;;;;;5034653;28;1343;-72
2021/09/26 04:31:27;;;;;;;;;;;21.10;71.10;;;;;;5034551;28;1380;-72
2021/09/26 04:33:53;;;;;;;;;;;21.10;71.00;;;;;;5035159;28;1910;-72
2021/09/26 04:36:18;;;;;;;;;;;21.10;71.10;;;;;;5034504;28;1247;-72
2021/09/26 04:38:43;;;;;;;;;;;21.10;71.00;;;;;;5034640;28;1308;-72
2021/09/26 04:41:09;;;;;;;;;;;21.10;71.00;;;;;;5016560;28;1161;-72
2021/09/26 04:43:34;;;;;;;;;;;21.10;70.90;;;;;;5016926;28;1366;-73
2021/09/26 04:46:00;;;;;;;;;;;21.10;70.90;;;;;;5034446;28;1276;-72
2021/09/26 04:48:25;;;;;;;;;;;21.10;70.80;;;;;;5034511;28;1377;-73
2021/09/26 04:50:50;;;;;;;;;;;21.10;70.80;;;;;;5033933;28;1402;-72
2021/09/26 04:53:16;;;;;;;;;;;21.10;70.80;;;;;;5016495;28;1898;-72
2021/09/26 04:55:41;;;;;;;;;;;21.10;70.80;;;;;;5034589;28;1207;-72
2021/09/26 04:58:07;;;;;;;;;;;21.10;70.80;;;;;;5034253;28;1211;-72
2021/09/26 05:00:33;;;;;;;;;;;21.10;70.80;;;;;;5033961;28;1136;-72
2021/09/26 05:02:58;;;;;;;;;;;21.10;70.70;;;;;;5034140;28;1096;-72
2021/09/26 05:05:24;;;;;;;;;;;21.10;70.70;;;;;;5034215;28;1273;-72
2021/09/26 05:07:49;;;;;;;;;;;21.10;70.70;;;;;;5033551;28;1370;-72
2021/09/26 05:10:14;;;;;;;;;;;21.10;70.70;;;;;;5033726;28;1298;-72
2021/09/26 05:12:40;;;;;;;;;;;21.20;70.70;;;;;;5033855;28;1898;-72
2021/09/26 05:15:06;;;;;;;;;;;21.20;70.70;;;;;;5033933;28;1175;-72
2021/09/26 05:17:31;;;;;;;;;;;21.20;70.70;;;;;;5033848;28;1257;-73
2021/09/26 05:19:57;;;;;;;;;;;21.20;70.70;;;;;;5033336;28;1073;-71
2021/09/26 05:22:22;;;;;;;;;;;21.20;70.70;;;;;;5033638;28;1309;-72
2021/09/26 05:24:48;;;;;;;;;;;21.20;70.60;;;;;;5033689;28;1148;-72
2021/09/26 05:27:13;;;;;;;;;;;21.20;70.60;;;;;;5033550;28;1112;-72
2021/09/26 05:29:40;;;;;;;;;;;21.20;70.60;;;;;;5033479;28;1387;-73
2021/09/26 05:32:06;;;;;;;;;;;21.20;70.70;;;;;;5032803;28;1304;-72
2021/09/26 05:34:31;;;;;;;;;;;21.20;70.60;;;;;;5033256;28;1910;-71
2021/09/26 05:36:57;;;;;;;;;;;21.20;70.50;;;;;;5033518;28;1250;-72
2021/09/26 05:39:25;;;;;;;;;;;21.20;70.50;;;;;;5033541;28;1268;-72
2021/09/26 05:41:50;;;;;;;;;;;21.20;70.50;;;;;;5015971;28;1034;-72
2021/09/26 05:44:16;;;;;;;;;;;21.20;70.50;;;;;;5015718;28;1326;-72
2021/09/26 05:46:41;;;;;;;;;;;21.20;70.50;;;;;;5033410;28;1326;-72
2021/09/26 05:49:07;;;;;;;;;;;21.20;70.50;;;;;;5033165;28;1295;-72
2021/09/26 05:51:32;;;;;;;;;;;21.20;70.50;;;;;;5032892;28;1249;-72
2021/09/26 05:53:58;;;;;;;;;;;21.20;70.50;;;;;;5033097;28;1957;-72
2021/09/26 05:56:23;;;;;;;;;;;21.20;70.50;;;;;;5033346;28;1116;-72
2021/09/26 05:58:48;;;;;;;;;;;21.20;70.40;;;;;;5033227;28;1369;-72
2021/09/26 06:01:14;;;;;;;;;;;21.20;70.50;;;;;;5032883;28;1317;-73
2021/09/26 06:03:41;;;;;;;;;;;21.20;70.40;;;;;;5032963;28;1335;-72
2021/09/26 06:06:07;;;;;;;;;;;21.20;70.40;;;;;;5033077;28;1005;-72
2021/09/26 06:08:32;;;;;;;;;;;21.20;70.40;;;;;;5015376;28;1397;-71
2021/09/26 06:10:58;;;;;;;;;;;21.20;70.40;;;;;;5032752;28;1270;-72
2021/09/26 06:13:23;;;;;;;;;;;21.20;70.40;;;;;;5032802;28;1906;-72
2021/09/26 06:15:49;;;;;;;;;;;21.20;70.40;;;;;;5033004;28;1273;-72
2021/09/26 06:18:14;;;;;;;;;;;21.20;70.40;;;;;;5032463;28;1245;-73
2021/09/26 06:20:40;;;;;;;;;;;21.30;71.20;;;;;;5032661;28;1173;-73
2021/09/26 06:23:05;;;;;;;;;;;21.20;70.40;;;;;;5032963;28;1288;-72
2021/09/26 06:25:31;;;;;;;;;;;21.20;70.40;;;;;;5015406;28;1405;-73
2021/09/26 06:27:56;;;;;;;;;;;21.30;70.40;;;;;;5032669;28;1232;-73
2021/09/26 06:30:22;;;;;;;;;;;21.30;70.40;;;;;;5014938;28;1355;-73
2021/09/26 06:32:47;;;;;;;;;;;21.30;70.20;;;;;;5032538;28;1910;-73
2021/09/26 06:35:12;;;;;;;;;;;21.20;70.00;;;;;;5014980;28;1397;-73
2021/09/26 06:37:38;;;;;;;;;;;21.20;70.10;;;;;;5028624;28;1419;-70
2021/09/26 06:40:04;;;;;;;;;;;21.20;70.00;;;;;;4999108;28;1843;-71
2021/09/26 06:42:30;;;;;;;;;;;21.20;69.90;;;;;;5013493;28;1380;-72
2021/09/26 06:44:55;;;;;;;;;;;21.20;69.80;;;;;;5028947;28;1163;-72
2021/09/26 06:47:20;;;;;;;;;;;21.20;69.80;;;;;;5031578;28;1386;-72
2021/09/26 06:49:46;;;;;;;;;;;21.20;69.90;;;;;;5031463;28;1333;-72
2021/09/26 06:52:13;;;;;;;;;;;21.20;69.90;;;;;;5031111;28;1420;-73
2021/09/26 06:54:39;;;;;;;;;;;21.20;69.90;;;;;;5031451;28;1957;-70
2021/09/26 06:57:05;;;;;;;;;;;21.20;69.90;;;;;;5014858;28;1354;-71
2021/09/26 06:59:31;;;;;;;;;;;21.20;69.90;;;;;;5032607;28;1376;-71
2021/09/26 07:01:56;;;;;;;;;;;21.10;69.90;;;;;;5014520;28;1496;-71
2021/09/26 07:04:22;;;;;;;;;;;21.10;69.90;;;;;;5032442;28;1272;-71
2021/09/26 07:06:47;;;;;;;;;;;21.10;69.90;;;;;;5032399;28;1289;-71
2021/09/26 07:09:13;;;;;;;;;;;21.10;70.70;;;;;;5032445;28;1298;-71
2021/09/26 07:11:38;;;;;;;;;;;21.10;69.90;;;;;;5032098;28;1257;-71
2021/09/26 07:14:03;;;;;;;;;;;21.10;69.90;;;;;;5023959;28;1894;-71
2021/09/26 07:16:29;;;;;;;;;;;21.10;70.00;;;;;;5027220;28;1284;-71
2021/09/26 07:18:54;;;;;;;;;;;21.10;70.00;;;;;;5032769;28;1302;-71
2021/09/26 07:21:20;;;;;;;;;;;21.10;70.00;;;;;;5031875;28;1299;-71
2021/09/26 07:23:45;;;;;;;;;;;21.10;70.10;;;;;;5032390;28;1060;-71
2021/09/26 07:26:11;;;;;;;;;;;21.10;70.10;;;;;;5032216;28;1433;-71
2021/09/26 07:28:36;;;;;;;;;;;21.10;70.20;;;;;;5014576;28;1354;-71
2021/09/26 07:31:01;;;;;;;;;;;21.10;70.20;;;;;;5035369;28;1150;-71
2021/09/26 07:33:27;;;;;;;;;;;21.10;70.30;;;;;;5035550;28;1898;-71
2021/09/26 07:35:52;;;;;;;;;;;21.10;70.30;;;;;;5035580;28;1272;-71
2021/09/26 07:38:18;;;;;;;;;;;21.10;70.30;;;;;;5035831;28;1342;-71
2021/09/26 07:40:43;;;;;;;;;;;21.10;70.30;;;;;;5035773;28;1310;-71
2021/09/26 07:43:09;;;;;;;;;;;21.10;70.40;;;;;;5035553;28;1156;-71
2021/09/26 07:45:34;;;;;;;;;;;21.10;70.40;;;;;;5035685;28;1656;-71
2021/09/26 07:48:00;;;;;;;;;;;21.00;70.30;;;;;;5035193;28;1369;-71
2021/09/26 07:50:26;;;;;;;;;;;21.00;70.40;;;;;;5035257;28;1411;-72
2021/09/26 07:52:52;;;;;;;;;;;21.00;70.30;;;;;;5035745;28;1902;-71
2021/09/26 07:55:17;;;;;;;;;;;21.00;70.40;;;;;;5035492;28;1342;-71
2021/09/26 07:57:42;;;;;;;;;;;21.00;70.30;;;;;;5035248;28;1473;-71
2021/09/26 08:00:08;;;;;;;;;;;21.00;70.30;;;;;;5035115;28;1279;-71
2021/09/26 08:02:34;;;;;;;;;;;21.00;70.40;;;;;;5011642;28;2010;-71
2021/09/26 08:04:59;;;;;;;;;;;21.00;70.40;;;;;;5035399;28;1163;-71
2021/09/26 08:07:24;;;;;;;;;;;21.00;70.40;;;;;;5025477;28;1395;-71
2021/09/26 08:09:50;;;;;;;;;;;21.00;70.40;;;;;;5017175;28;1380;-71
2021/09/26 08:12:15;;;;;;;;;;;21.00;70.40;;;;;;5034961;28;1364;-71
2021/09/26 08:14:41;;;;;;;;;;;21.00;70.40;;;;;;5035618;28;1898;-71
2021/09/26 08:17:06;;;;;;;;;;;21.00;70.40;;;;;;5034465;28;1289;-71
2021/09/26 08:19:35;;;;;;;;;;;21.00;70.40;;;;;;5034434;28;1342;-71
2021/09/26 08:22:00;;;;;;;;;;;21.00;70.40;;;;;;5021720;28;1211;-71
2021/09/26 08:24:27;;;;;;;;;;;21.00;70.40;;;;;;5034999;28;1144;-71
2021/09/26 08:26:52;;;;;;;;;;;21.00;70.40;;;;;;5034817;28;1281;-71
2021/09/26 08:29:18;;;;;;;;;;;21.00;70.40;;;;;;5034483;28;1247;-71
2021/09/26 08:31:43;;;;;;;;;;;21.00;70.40;;;;;;5034327;28;1360;-71
2021/09/26 08:34:09;;;;;;;;;;;21.00;70.30;;;;;;5034882;28;1902;-71
2021/09/26 08:36:34;;;;;;;;;;;21.00;70.30;;;;;;5034831;28;1234;-71
2021/09/26 08:39:00;;;;;;;;;;;21.00;70.30;;;;;;5034706;28;1346;-72
2021/09/26 08:41:25;;;;;;;;;;;21.00;70.30;;;;;;5015192;28;1272;-71
2021/09/26 08:43:52;;;;;;;;;;;20.90;70.20;;;;;;5016801;28;1258;-71
2021/09/26 08:46:17;;;;;;;;;;;21.00;70.20;;;;;;5034062;28;1268;-72
2021/09/26 08:48:43;;;;;;;;;;;21.00;70.20;;;;;;5034168;28;1343;-71
2021/09/26 08:51:09;;;;;;;;;;;21.00;70.10;;;;;;5034352;28;1288;-71
2021/09/26 08:53:34;;;;;;;;;;;21.00;69.90;;;;;;5016101;28;1895;-71
2021/09/26 08:56:00;;;;;;;;;;;20.90;69.70;;;;;;5034351;28;1316;-71
2021/09/26 08:58:25;;;;;;;;;;;20.90;69.80;;;;;;5033131;28;1353;-71
2021/09/26 09:00:51;;;;;;;;;;;20.90;69.60;;;;;;5033106;28;1296;-71
2021/09/26 09:03:16;;;;;;;;;;;20.90;69.70;;;;;;5016430;28;1289;-71
2021/09/26 09:05:42;;;;;;;;;;;21.00;69.70;;;;;;5016473;28;1305;-71
2021/09/26 09:08:07;;;;;;;;;;;21.00;69.80;;;;;;5033986;28;1279;-71
2021/09/26 09:10:43;;;;;;;;;;;21.00;69.70;;;;;;5028226;28;1664;-71
2021/09/26 09:13:10;;;;;;;;;;;21.00;69.70;;;;;;5037599;28;1894;-71
2021/09/26 09:15:36;;;;;;;;;;;21.00;69.70;;;;;;5033507;28;1297;-71
2021/09/26 09:18:02;;;;;;;;;;;21.00;69.60;;;;;;5016030;28;1353;-71
2021/09/26 09:20:28;;;;;;;;;;;21.00;69.70;;;;;;5033399;28;1290;-71
2021/09/26 09:22:56;;;;;;;;;;;21.00;69.60;;;;;;5033757;28;1372;-71
2021/09/26 09:25:40;;;;;;;;;;;21.00;69.70;;;;;;5033573;28;1289;-71
2021/09/26 09:30:35;;;;;;;;;;;21.00;69.60;;;;;;5065249;23;1791;-71
2021/09/26 09:33:01;;;;;;;;;;;21.00;69.60;;;;;;5033923;28;1902;-71
2021/09/26 09:35:29;;;;;;;;;;;21.00;69.80;;;;;;5035943;28;1293;-71
2021/09/26 09:37:55;;;;;;;;;;;21.00;69.70;;;;;;5035709;28;1312;-71
2021/09/26 09:40:20;;;;;;;;;;;21.00;69.70;;;;;;5035291;28;1307;-71
2021/09/26 09:42:47;;;;;;;;;;;21.00;69.70;;;;;;5035444;28;1347;-71
2021/09/26 09:45:22;;;;;;;;;;;21.00;69.70;;;;;;5035522;28;1275;-71
2021/09/26 09:48:08;;;;;;;;;;;21.00;69.60;;;;;;5053150;28;1389;-71
2021/09/26 09:50:51;;;;;;;;;;;21.00;69.60;;;;;;5034801;28;1380;-72
2021/09/26 09:53:21;;;;;;;;;;;21.10;69.50;;;;;;5052700;28;1894;-72
2021/09/26 09:56:00;;;;;;;;;;;21.10;69.70;;;;;;5053361;28;1128;-72
2021/09/26 09:58:25;;;;;;;;;;;21.10;69.60;;;;;;5052778;28;1339;-71
2021/09/26 10:00:55;;;;;;;;;;;21.10;69.50;;;;;;5052489;28;1276;-71
2021/09/26 10:03:34;;;;;;;;;;;21.10;69.40;;;;;;5034964;28;1363;-71
2021/09/26 10:06:00;;;;;;;;;;;21.10;69.50;;;;;;5035279;28;1295;-71
2021/09/26 10:08:34;;;;;;;;;;;21.10;69.30;;;;;;5052952;28;1224;-71
2021/09/26 10:11:06;;;;;;;;;;;21.10;69.40;;;;;;5052733;28;1285;-71
2021/09/26 10:13:31;;;;;;;;;;;21.10;69.40;;;;;;5048614;28;1910;-72
2021/09/26 10:15:57;;;;;;;;;;;21.10;69.50;;;;;;5032805;28;1334;-72
2021/09/26 10:18:23;;;;;;;;;;;21.10;69.30;;;;;;5015242;28;1366;-71
2021/09/26 10:20:48;;;;;;;;;;;21.10;69.40;;;;;;5025055;28;1197;-71
2021/09/26 10:23:13;;;;;;;;;;;21.10;69.40;;;;;;5052798;28;1242;-71
2021/09/26 10:25:39;;;;;;;;;;;21.10;69.40;;;;;;5035230;28;1345;-71
2021/09/26 10:28:05;;;;;;;;;;;21.10;69.20;;;;;;5034822;28;1373;-71
2021/09/26 10:30:30;;;;;;;;;;;21.10;69.30;;;;;;5034393;28;1346;-71
2021/09/26 10:32:56;;;;;;;;;;;21.10;69.30;;;;;;5052673;28;1906;-71
2021/09/26 10:35:21;;;;;;;;;;;21.10;69.30;;;;;;5032298;28;2205;-69
2021/09/26 10:37:47;;;;;;;;;;;21.10;69.10;;;;;;5036666;28;1263;-69
2021/09/26 10:40:14;;;;;;;;;;;21.10;69.00;;;;;;5034440;28;1342;-69
2021/09/26 10:42:40;;;;;;;;;;;21.10;69.00;;;;;;5048733;28;1187;-69
2021/09/26 10:45:06;;;;;;;;;;;21.10;69.00;;;;;;5052354;28;1277;-69
2021/09/26 10:47:32;;;;;;;;;;;21.00;69.00;;;;;;5052645;28;1278;-69
2021/09/26 10:49:57;;;;;;;;;;;21.10;69.10;;;;;;5034536;28;1397;-69
2021/09/26 10:52:29;;;;;;;;;;;21.00;68.90;;;;;;5044024;28;1343;-70
2021/09/26 10:54:54;;;;;;;;;;;21.00;68.90;;;;;;5025201;28;1956;-70
2021/09/26 10:57:24;;;;;;;;;;;21.00;68.80;;;;;;5034291;28;1072;-70
2021/09/26 10:59:52;;;;;;;;;;;21.00;69.00;;;;;;5052157;28;1391;-70
2021/09/26 11:02:23;;;;;;;;;;;21.10;68.90;;;;;;5034850;28;1405;-69
2021/09/26 11:04:53;;;;;;;;;;;21.10;68.90;;;;;;5054433;28;1279;-69
2021/09/26 11:07:22;;;;;;;;;;;21.10;68.50;;;;;;5038626;28;1437;-70
2021/09/26 11:09:51;;;;;;;;;;;21.10;68.40;;;;;;5056341;28;1209;-70
2021/09/26 11:12:35;;;;;;;;;;;21.10;68.50;;;;;;5056035;28;1205;-70
2021/09/26 11:15:04;;;;;;;;;;;21.10;68.40;;;;;;5039747;28;1870;-69
2021/09/26 11:17:40;;;;;;;;;;;21.10;68.50;;;;;;5018433;28;1128;-69
2021/09/26 11:20:05;;;;;;;;;;;21.10;68.60;;;;;;5040137;28;1311;-69
2021/09/26 11:22:31;;;;;;;;;;;21.10;68.70;;;;;;5055609;28;1292;-69
2021/09/26 11:24:57;;;;;;;;;;;21.10;68.70;;;;;;5038063;28;1336;-70
2021/09/26 11:27:30;;;;;;;;;;;21.10;68.60;;;;;;5055935;28;1254;-69
2021/09/26 11:30:01;;;;;;;;;;;21.10;68.50;;;;;;5055524;28;1306;-70
2021/09/26 11:32:28;;;;;;;;;;;21.10;68.10;;;;;;5055559;28;1280;-69
2021/09/26 11:34:55;;;;;;;;;;;21.10;67.80;;;;;;5037159;28;1909;-69
2021/09/26 11:37:37;;;;;;;;;;;21.10;67.40;;;;;;5036732;28;1262;-69
2021/09/26 11:40:09;;;;;;;;;;;21.10;67.50;;;;;;5054885;28;1316;-69
2021/09/26 11:42:36;;;;;;;;;;;21.10;67.50;;;;;;5054989;28;1333;-70
2021/09/26 11:45:03;;;;;;;;;;;21.10;67.20;;;;;;5054814;28;1353;-69
2021/09/26 11:47:28;;;;;;;;;;;21.10;67.20;;;;;;5037436;28;1393;-69
2021/09/26 11:49:54;;;;;;;;;;;21.10;68.10;;;;;;5055222;28;1280;-70
2021/09/26 11:52:20;;;;;;;;;;;21.10;67.30;;;;;;5037544;28;1446;-70
2021/09/26 11:54:46;;;;;;;;;;;21.10;67.40;;;;;;5055301;28;1906;-70
2021/09/26 11:57:12;;;;;;;;;;;21.10;67.60;;;;;;5037629;28;1428;-70
2021/09/26 11:59:38;;;;;;;;;;;21.10;67.60;;;;;;5037635;28;1336;-69
2021/09/26 12:02:10;;;;;;;;;;;21.10;67.50;;;;;;5037109;28;1340;-70
2021/09/26 12:04:35;;;;;;;;;;;21.10;67.60;;;;;;5055257;28;1338;-69
2021/09/26 12:07:01;;;;;;;;;;;21.10;67.20;;;;;;5055282;28;1393;-69
2021/09/26 12:09:32;;;;;;;;;;;21.10;67.10;;;;;;5055158;28;1327;-70
2021/09/26 12:11:57;;;;;;;;;;;21.10;67.10;;;;;;5055209;28;1283;-70
2021/09/26 12:14:23;;;;;;;;;;;21.20;67.30;;;;;;5026269;28;1963;-69
2021/09/26 12:16:49;;;;;;;;;;;21.10;67.20;;;;;;5033369;28;1385;-69
2021/09/26 12:19:14;;;;;;;;;;;21.20;67.20;;;;;;5017401;28;1384;-69
2021/09/26 12:21:40;;;;;;;;;;;21.10;67.10;;;;;;5052473;28;1399;-69
2021/09/26 12:24:09;;;;;;;;;;;21.10;67.20;;;;;;5054861;28;1271;-69
2021/09/26 12:26:36;;;;;;;;;;;21.10;67.20;;;;;;5054825;28;1323;-69
2021/09/26 12:29:03;;;;;;;;;;;21.10;67.30;;;;;;5036773;28;1277;-69
2021/09/26 12:31:29;;;;;;;;;;;21.10;67.20;;;;;;5036576;28;1367;-69
2021/09/26 12:33:54;;;;;;;;;;;21.10;67.10;;;;;;5037120;28;1914;-69
2021/09/26 12:36:20;;;;;;;;;;;21.10;67.10;;;;;;5054648;28;1360;-69
2021/09/26 12:38:45;;;;;;;;;;;21.10;66.70;;;;;;5054480;28;1288;-69
2021/09/26 12:41:12;;;;;;;;;;;21.10;66.80;;;;;;5054265;28;1300;-69
2021/09/26 12:43:48;;;;;;;;;;;21.10;66.70;;;;;;5036633;28;1290;-70
2021/09/26 12:46:15;;;;;;;;;;;21.10;66.80;;;;;;5036637;28;1309;-70
2021/09/26 12:48:42;;;;;;;;;;;21.10;66.90;;;;;;5036809;28;1299;-70
2021/09/26 12:51:10;;;;;;;;;;;21.10;67.20;;;;;;5036760;28;972;-70
2021/09/26 12:53:38;;;;;;;;;;;21.10;67.10;;;;;;5036333;28;1963;-70
2021/09/26 12:56:03;;;;;;;;;;;21.10;67.20;;;;;;5036541;28;1280;-69
2021/09/26 12:58:31;;;;;;;;;;;21.10;67.20;;;;;;5036055;28;1394;-70
2021/09/26 13:01:08;;;;;;;;;;;21.10;67.20;;;;;;5036111;28;1887;-70
2021/09/26 13:03:34;;;;;;;;;;;21.10;66.90;;;;;;5040877;28;1170;-70
2021/09/26 13:06:04;;;;;;;;;;;21.10;66.60;;;;;;5031604;28;1338;-71
2021/09/26 13:08:31;;;;;;;;;;;21.10;67.40;;;;;;5036254;28;1355;-70
2021/09/26 13:11:01;;;;;;;;;;;21.10;67.40;;;;;;5031189;28;1901;-69
2021/09/26 13:13:37;;;;;;;;;;;21.10;67.60;;;;;;5030014;28;1906;-69
2021/09/26 13:16:21;;;;;;;;;;;21.10;67.60;;;;;;5032794;28;1128;-70
2021/09/26 13:18:46;;;;;;;;;;;21.10;67.60;;;;;;5020364;28;1339;-70
2021/09/26 13:21:12;;;;;;;;;;;21.10;67.40;;;;;;5046290;28;1240;-71
2021/09/26 13:23:37;;;;;;;;;;;21.10;67.40;;;;;;5044210;28;1853;-70
2021/09/26 13:26:09;;;;;;;;;;;21.10;67.50;;;;;;5034788;28;1402;-71
2021/09/26 13:28:34;;;;;;;;;;;21.10;67.50;;;;;;5036024;28;1278;-71
2021/09/26 13:31:04;;;;;;;;;;;21.10;67.50;;;;;;5035898;28;1952;-70
2021/09/26 13:33:31;;;;;;;;;;;21.10;67.30;;;;;;5019428;28;1910;-70
2021/09/26 13:36:32;;;;;;;;;;;21.10;67.30;;;;;;5006270;28;1563;-69
2021/09/26 13:39:01;;;;;;;;;;;21.10;67.10;;;;;;5029523;28;1601;-69
2021/09/26 13:41:26;;;;;;;;;;;21.10;67.10;;;;;;5034998;28;1456;-69
2021/09/26 13:43:56;;;;;;;;;;;21.10;67.20;;;;;;5022501;28;2245;-70
2021/09/26 13:46:22;;;;;;;;;;;21.10;67.10;;;;;;5033799;28;1285;-69
2021/09/26 13:48:47;;;;;;;;;;;21.10;67.00;;;;;;5034721;28;1296;-69
2021/09/26 13:51:12;;;;;;;;;;;21.10;67.00;;;;;;5019837;28;1419;-69
2021/09/26 13:53:38;;;;;;;;;;;21.10;67.80;;;;;;5020469;28;1906;-69
2021/09/26 13:56:04;;;;;;;;;;;21.10;67.10;;;;;;5036156;28;1133;-69
2021/09/26 13:58:29;;;;;;;;;;;21.10;67.40;;;;;;4988938;28;1306;-69
2021/09/26 14:00:55;;;;;;;;;;;21.10;67.20;;;;;;5032357;28;1486;-69
2021/09/26 14:03:21;;;;;;;;;;;21.10;67.10;;;;;;5033103;28;1314;-69
2021/09/26 14:05:46;;;;;;;;;;;21.20;67.00;;;;;;5014716;28;1964;-69
2021/09/26 14:08:12;;;;;;;;;;;21.20;67.00;;;;;;5028462;28;1963;-70
2021/09/26 14:10:37;;;;;;;;;;;21.20;66.90;;;;;;5013386;28;1855;-71
2021/09/26 14:13:04;;;;;;;;;;;21.10;67.20;;;;;;5008343;28;1944;-71
2021/09/26 14:15:30;;;;;;;;;;;21.10;67.30;;;;;;5034509;28;1152;-71
2021/09/26 14:17:56;;;;;;;;;;;21.10;67.50;;;;;;5041182;28;1912;-71
2021/09/26 14:20:21;;;;;;;;;;;21.10;67.80;;;;;;5031120;28;1179;-71
2021/09/26 14:22:47;;;;;;;;;;;21.10;68.60;;;;;;5003926;28;1195;-71
2021/09/26 14:25:12;;;;;;;;;;;21.10;68.10;;;;;;5035899;28;1062;-72
2021/09/26 14:27:38;;;;;;;;;;;21.10;68.50;;;;;;5028211;28;1116;-72
2021/09/26 14:30:03;;;;;;;;;;;21.10;68.40;;;;;;5052038;28;1395;-71